sensor_id;sensor_type;location;lat;lon;timestamp;P1;P2;P0
65973;PMS5003;52729;54.906;73.316;2022-09-21T00:01:42;40.50;32.00;19.00
65973;PMS5003;52729;54.906;73.316;2022-09-21T00:04:43;35.50;28.50;17.50
65973;PMS5003;52729;54.906;73.316;2022-09-21T00:07:50;37.50;30.75;19.50
65973;PMS5003;52729;54.906;73.316;2022-09-21T00:11:01;38.50;32.00;20.25
65973;PMS5003;52729;54.906;73.316;2022-09-21T00:14:11;41.00;32.50;21.00
65973;PMS5003;52729;54.906;73.316;2022-09-21T00:17:12;38.50;32.50;20.00
65973;PMS5003;52729;54.906;73.316;2022-09-21T00:20:13;36.00;30.67;19.00
65973;PMS5003;52729;54.906;73.316;2022-09-21T00:23:15;37.50;33.00;20.00
65973;PMS5003;52729;54.906;73.316;2022-09-21T00:26:17;35.75;31.00;20.00
65973;PMS5003;52729;54.906;73.316;2022-09-21T00:29:23;35.50;31.50;20.00
65973;PMS5003;52729;54.906;73.316;2022-09-21T00:32:24;35.00;30.33;20.00
65973;PMS5003;52729;54.906;73.316;2022-09-21T00:35:30;36.00;31.00;21.00
65973;PMS5003;52729;54.906;73.316;2022-09-21T00:38:31;35.00;29.33;19.00
65973;PMS5003;52729;54.906;73.316;2022-09-21T00:41:43;35.25;30.75;19.25
65973;PMS5003;52729;54.906;73.316;2022-09-21T00:44:45;34.00;30.25;20.00
65973;PMS5003;52729;54.906;73.316;2022-09-21T00:47:49;34.00;29.50;19.00
65973;PMS5003;52729;54.906;73.316;2022-09-21T00:50:57;38.00;32.00;21.00
65973;PMS5003;52729;54.906;73.316;2022-09-21T00:54:11;39.75;33.00;19.75
65973;PMS5003;52729;54.906;73.316;2022-09-21T00:57:14;37.00;29.00;19.00
65973;PMS5003;52729;54.906;73.316;2022-09-21T01:00:16;36.00;30.75;18.00
65973;PMS5003;52729;54.906;73.316;2022-09-21T01:03:17;35.50;31.25;20.50
65973;PMS5003;52729;54.906;73.316;2022-09-21T01:06:23;38.00;33.00;20.75
65973;PMS5003;52729;54.906;73.316;2022-09-21T01:09:24;40.00;32.00;20.50
65973;PMS5003;52729;54.906;73.316;2022-09-21T01:15:38;39.33;33.00;21.00
65973;PMS5003;52729;54.906;73.316;2022-09-21T01:18:46;39.00;33.00;21.25
65973;PMS5003;52729;54.906;73.316;2022-09-21T01:22:09;41.00;32.50;21.50
65973;PMS5003;52729;54.906;73.316;2022-09-21T01:25:22;36.50;29.50;19.00
65973;PMS5003;52729;54.906;73.316;2022-09-21T01:35:43;39.00;31.50;20.00
65973;PMS5003;52729;54.906;73.316;2022-09-21T01:38:58;42.50;34.25;21.00
65973;PMS5003;52729;54.906;73.316;2022-09-21T01:42:02;43.50;35.00;21.75
65973;PMS5003;52729;54.906;73.316;2022-09-21T01:45:16;41.50;34.00;21.50
65973;PMS5003;52729;54.906;73.316;2022-09-21T01:48:20;40.50;33.50;20.25
65973;PMS5003;52729;54.906;73.316;2022-09-21T01:51:24;38.25;32.00;19.00
65973;PMS5003;52729;54.906;73.316;2022-09-21T01:54:33;39.25;32.25;20.00
65973;PMS5003;52729;54.906;73.316;2022-09-21T02:00:56;37.50;30.00;20.00
65973;PMS5003;52729;54.906;73.316;2022-09-21T02:04:02;34.50;29.50;19.00
65973;PMS5003;52729;54.906;73.316;2022-09-21T02:07:05;39.75;31.25;20.50
65973;PMS5003;52729;54.906;73.316;2022-09-21T02:10:06;42.00;32.75;21.00
65973;PMS5003;52729;54.906;73.316;2022-09-21T02:13:09;42.75;34.00;22.00
65973;PMS5003;52729;54.906;73.316;2022-09-21T02:16:34;41.00;34.00;21.00
65973;PMS5003;52729;54.906;73.316;2022-09-21T02:23:35;37.25;31.00;20.00
65973;PMS5003;52729;54.906;73.316;2022-09-21T02:30:20;43.25;34.25;21.75
65973;PMS5003;52729;54.906;73.316;2022-09-21T02:33:23;45.75;34.75;23.00
65973;PMS5003;52729;54.906;73.316;2022-09-21T02:36:41;43.00;34.50;21.50
65973;PMS5003;52729;54.906;73.316;2022-09-21T02:39:47;44.75;34.00;22.00
65973;PMS5003;52729;54.906;73.316;2022-09-21T02:42:59;44.00;34.75;20.50
65973;PMS5003;52729;54.906;73.316;2022-09-21T02:46:02;40.75;34.00;21.00
65973;PMS5003;52729;54.906;73.316;2022-09-21T02:49:09;43.00;35.75;22.75
65973;PMS5003;52729;54.906;73.316;2022-09-21T02:52:13;45.25;37.25;24.50
65973;PMS5003;52729;54.906;73.316;2022-09-21T02:55:14;45.25;37.00;22.25
65973;PMS5003;52729;54.906;73.316;2022-09-21T02:58:17;45.75;36.50;23.50
65973;PMS5003;52729;54.906;73.316;2022-09-21T03:01:20;43.50;35.00;23.00
65973;PMS5003;52729;54.906;73.316;2022-09-21T03:04:27;42.25;34.50;22.00
65973;PMS5003;52729;54.906;73.316;2022-09-21T03:07:28;40.00;32.33;20.33
65973;PMS5003;52729;54.906;73.316;2022-09-21T03:10:39;42.25;34.75;22.00
65973;PMS5003;52729;54.906;73.316;2022-09-21T03:13:40;38.75;33.50;22.00
65973;PMS5003;52729;54.906;73.316;2022-09-21T03:16:41;41.50;34.00;21.50
65973;PMS5003;52729;54.906;73.316;2022-09-21T03:19:42;42.75;35.00;22.00
65973;PMS5003;52729;54.906;73.316;2022-09-21T03:22:43;40.50;33.00;21.50
65973;PMS5003;52729;54.906;73.316;2022-09-21T03:25:44;40.00;33.00;21.00
65973;PMS5003;52729;54.906;73.316;2022-09-21T03:28:55;40.75;34.75;22.00
65973;PMS5003;52729;54.906;73.316;2022-09-21T03:31:56;40.00;34.00;21.00
65973;PMS5003;52729;54.906;73.316;2022-09-21T03:34:57;38.67;33.00;19.00
65973;PMS5003;52729;54.906;73.316;2022-09-21T03:37:58;37.33;32.33;20.00
65973;PMS5003;52729;54.906;73.316;2022-09-21T03:40:59;33.00;27.75;18.00
65973;PMS5003;52729;54.906;73.316;2022-09-21T03:44:00;29.00;26.25;18.00
65973;PMS5003;52729;54.906;73.316;2022-09-21T03:47:01;25.00;24.00;16.00
65973;PMS5003;52729;54.906;73.316;2022-09-21T03:50:13;22.00;22.00;12.00
65973;PMS5003;52729;54.906;73.316;2022-09-21T03:53:14;19.00;19.00;8.75
65973;PMS5003;52729;54.906;73.316;2022-09-21T03:56:15;19.00;19.00;8.00
65973;PMS5003;52729;54.906;73.316;2022-09-21T03:59:16;18.33;18.00;7.00
65973;PMS5003;52729;54.906;73.316;2022-09-21T04:02:28;23.25;19.25;8.50
65973;PMS5003;52729;54.906;73.316;2022-09-21T04:05:29;20.00;18.00;8.00
65973;PMS5003;52729;54.906;73.316;2022-09-21T04:08:30;18.75;17.50;7.75
65973;PMS5003;52729;54.906;73.316;2022-09-21T04:11:33;18.00;15.00;8.00
65973;PMS5003;52729;54.906;73.316;2022-09-21T04:14:33;17.00;15.00;8.00
65973;PMS5003;52729;54.906;73.316;2022-09-21T04:17:39;20.25;15.50;8.00
65973;PMS5003;52729;54.906;73.316;2022-09-21T04:20:41;19.00;16.50;7.50
65973;PMS5003;52729;54.906;73.316;2022-09-21T04:23:42;19.00;16.00;8.00
65973;PMS5003;52729;54.906;73.316;2022-09-21T04:26:43;16.00;14.00;5.75
65973;PMS5003;52729;54.906;73.316;2022-09-21T04:29:44;21.00;16.75;7.00
65973;PMS5003;52729;54.906;73.316;2022-09-21T04:32:45;19.50;17.00;7.25
65973;PMS5003;52729;54.906;73.316;2022-09-21T04:35:46;19.00;16.00;6.00
65973;PMS5003;52729;54.906;73.316;2022-09-21T04:38:47;17.00;15.25;5.00
65973;PMS5003;52729;54.906;73.316;2022-09-21T04:41:49;14.50;10.75;3.25
65973;PMS5003;52729;54.906;73.316;2022-09-21T04:44:50;13.00;9.50;3.00
65973;PMS5003;52729;54.906;73.316;2022-09-21T04:47:51;11.00;8.00;3.00
65973;PMS5003;52729;54.906;73.316;2022-09-21T04:50:52;10.33;9.00;5.00
65973;PMS5003;52729;54.906;73.316;2022-09-21T04:53:53;12.50;11.50;6.00
65973;PMS5003;52729;54.906;73.316;2022-09-21T04:57:04;15.75;14.50;8.00
65973;PMS5003;52729;54.906;73.316;2022-09-21T05:00:05;16.00;13.50;7.00
65973;PMS5003;52729;54.906;73.316;2022-09-21T05:03:06;18.00;12.75;6.00
65973;PMS5003;52729;54.906;73.316;2022-09-21T05:06:12;18.00;13.00;6.00
65973;PMS5003;52729;54.906;73.316;2022-09-21T05:09:19;15.00;12.25;5.00
65973;PMS5003;52729;54.906;73.316;2022-09-21T05:12:39;16.50;12.50;6.50
65973;PMS5003;52729;54.906;73.316;2022-09-21T05:15:41;15.00;13.00;6.00
65973;PMS5003;52729;54.906;73.316;2022-09-21T05:18:52;13.00;12.00;5.00
65973;PMS5003;52729;54.906;73.316;2022-09-21T05:21:57;11.00;11.00;4.75
65973;PMS5003;52729;54.906;73.316;2022-09-21T05:24:58;10.00;9.75;4.00
65973;PMS5003;52729;54.906;73.316;2022-09-21T05:27:59;9.00;9.00;4.00
65973;PMS5003;52729;54.906;73.316;2022-09-21T05:31:15;8.75;8.50;4.75
65973;PMS5003;52729;54.906;73.316;2022-09-21T05:34:24;12.00;10.00;4.00
65973;PMS5003;52729;54.906;73.316;2022-09-21T05:40:38;7.25;7.00;3.00
65973;PMS5003;52729;54.906;73.316;2022-09-21T05:51:28;6.00;6.00;3.50
65973;PMS5003;52729;54.906;73.316;2022-09-21T05:54:37;6.00;4.75;1.00
65973;PMS5003;52729;54.906;73.316;2022-09-21T06:04:11;7.00;7.00;2.50
65973;PMS5003;52729;54.906;73.316;2022-09-21T06:07:15;12.00;10.25;3.75
65973;PMS5003;52729;54.906;73.316;2022-09-21T06:10:28;8.00;7.00;3.25
65973;PMS5003;52729;54.906;73.316;2022-09-21T06:13:37;11.75;9.00;4.00
65973;PMS5003;52729;54.906;73.316;2022-09-21T06:27:38;15.25;13.50;7.50
65973;PMS5003;52729;54.906;73.316;2022-09-21T06:30:49;19.75;17.50;6.25
65973;PMS5003;52729;54.906;73.316;2022-09-21T06:33:50;27.50;22.75;11.00
65973;PMS5003;52729;54.906;73.316;2022-09-21T06:36:51;27.50;24.50;13.00
65973;PMS5003;52729;54.906;73.316;2022-09-21T06:39:52;23.00;20.50;10.50
65973;PMS5003;52729;54.906;73.316;2022-09-21T06:42:57;25.75;21.50;10.75
65973;PMS5003;52729;54.906;73.316;2022-09-21T06:45:59;12.75;11.75;3.50
65973;PMS5003;52729;54.906;73.316;2022-09-21T06:49:00;6.75;6.75;1.25
65973;PMS5003;52729;54.906;73.316;2022-09-21T06:52:11;4.00;4.00;2.00
65973;PMS5003;52729;54.906;73.316;2022-09-21T06:55:17;10.00;9.50;3.75
65973;PMS5003;52729;54.906;73.316;2022-09-21T06:58:18;10.00;7.50;3.00
65973;PMS5003;52729;54.906;73.316;2022-09-21T07:01:19;5.00;4.00;2.50
65973;PMS5003;52729;54.906;73.316;2022-09-21T07:04:21;8.75;6.50;2.50
65973;PMS5003;52729;54.906;73.316;2022-09-21T07:07:24;4.00;4.00;2.00
65973;PMS5003;52729;54.906;73.316;2022-09-21T07:10:25;3.75;3.75;1.00
65973;PMS5003;52729;54.906;73.316;2022-09-21T07:13:27;6.00;5.75;1.50
65973;PMS5003;52729;54.906;73.316;2022-09-21T07:16:28;4.00;4.00;1.00
65973;PMS5003;52729;54.906;73.316;2022-09-21T07:19:29;10.00;9.00;4.33
65973;PMS5003;52729;54.906;73.316;2022-09-21T07:22:30;34.75;26.75;9.75
65973;PMS5003;52729;54.906;73.316;2022-09-21T07:25:31;32.75;27.50;7.25
65973;PMS5003;52729;54.906;73.316;2022-09-21T07:28:33;11.75;10.75;2.00
65973;PMS5003;52729;54.906;73.316;2022-09-21T07:31:34;5.00;3.50;1.00
65973;PMS5003;52729;54.906;73.316;2022-09-21T07:34:35;6.50;5.50;0.00
65973;PMS5003;52729;54.906;73.316;2022-09-21T07:37:39;5.00;4.00;0.00
65973;PMS5003;52729;54.906;73.316;2022-09-21T07:40:49;5.00;4.75;0.50
65973;PMS5003;52729;54.906;73.316;2022-09-21T07:43:51;5.00;5.00;0.00
65973;PMS5003;52729;54.906;73.316;2022-09-21T07:46:53;4.00;4.00;1.00
65973;PMS5003;52729;54.906;73.316;2022-09-21T07:49:54;1.00;1.00;0.00
65973;PMS5003;52729;54.906;73.316;2022-09-21T07:52:55;2.00;2.00;0.00
65973;PMS5003;52729;54.906;73.316;2022-09-21T07:56:02;0.25;0.25;0.00
65973;PMS5003;52729;54.906;73.316;2022-09-21T07:59:13;1.00;1.00;0.00
65973;PMS5003;52729;54.906;73.316;2022-09-21T08:02:14;3.50;3.50;0.00
65973;PMS5003;52729;54.906;73.316;2022-09-21T08:05:15;11.75;11.75;6.00
65973;PMS5003;52729;54.906;73.316;2022-09-21T08:08:16;16.50;14.50;7.00
65973;PMS5003;52729;54.906;73.316;2022-09-21T08:11:18;9.75;8.75;4.25
65973;PMS5003;52729;54.906;73.316;2022-09-21T08:14:21;3.50;3.00;1.00
65973;PMS5003;52729;54.906;73.316;2022-09-21T08:17:27;2.00;2.00;0.00
65973;PMS5003;52729;54.906;73.316;2022-09-21T08:20:39;4.25;2.75;0.00
65973;PMS5003;52729;54.906;73.316;2022-09-21T08:23:40;3.00;3.00;0.00
65973;PMS5003;52729;54.906;73.316;2022-09-21T08:26:53;3.00;3.00;0.00
65973;PMS5003;52729;54.906;73.316;2022-09-21T08:29:55;2.00;2.00;0.00
65973;PMS5003;52729;54.906;73.316;2022-09-21T08:32:56;1.00;0.00;0.00
65973;PMS5003;52729;54.906;73.316;2022-09-21T08:35:57;1.00;0.00;0.00
65973;PMS5003;52729;54.906;73.316;2022-09-21T08:38:59;3.00;2.00;0.00
65973;PMS5003;52729;54.906;73.316;2022-09-21T08:42:16;4.25;4.25;0.00
65973;PMS5003;52729;54.906;73.316;2022-09-21T08:45:35;5.75;5.75;0.00
65973;PMS5003;52729;54.906;73.316;2022-09-21T08:48:45;13.25;13.00;7.00
65973;PMS5003;52729;54.906;73.316;2022-09-21T08:51:51;12.75;12.00;5.00
65973;PMS5003;52729;54.906;73.316;2022-09-21T08:55:17;4.00;4.00;2.00
65973;PMS5003;52729;54.906;73.316;2022-09-21T09:08:22;1.00;1.00;0.00
65973;PMS5003;52729;54.906;73.316;2022-09-21T09:11:49;1.00;1.00;0.00
65973;PMS5003;52729;54.906;73.316;2022-09-21T09:21:03;3.25;3.00;0.00
65973;PMS5003;52729;54.906;73.316;2022-09-21T09:30:30;3.75;1.75;0.00
65973;PMS5003;52729;54.906;73.316;2022-09-21T09:33:45;2.50;2.00;0.00
65973;PMS5003;52729;54.906;73.316;2022-09-21T09:37:32;2.00;2.00;0.00
65973;PMS5003;52729;54.906;73.316;2022-09-21T09:40:13;3.00;3.00;0.00
65973;PMS5003;52729;54.906;73.316;2022-09-21T09:44:10;2.25;2.25;0.00
65973;PMS5003;52729;54.906;73.316;2022-09-21T09:53:10;3.00;2.00;0.00
65973;PMS5003;52729;54.906;73.316;2022-09-21T09:56:12;4.00;4.00;0.00
65973;PMS5003;52729;54.906;73.316;2022-09-21T10:02:25;4.00;4.00;0.00
65973;PMS5003;52729;54.906;73.316;2022-09-21T10:11:41;8.75;7.00;3.00
65973;PMS5003;52729;54.906;73.316;2022-09-21T10:14:47;5.00;4.00;1.00
65973;PMS5003;52729;54.906;73.316;2022-09-21T10:17:55;3.00;2.00;1.00
65973;PMS5003;52729;54.906;73.316;2022-09-21T10:24:19;4.00;3.25;1.00
65973;PMS5003;52729;54.906;73.316;2022-09-21T10:27:26;5.00;5.00;0.00
65973;PMS5003;52729;54.906;73.316;2022-09-21T10:33:30;3.00;3.00;1.00
65973;PMS5003;52729;54.906;73.316;2022-09-21T10:36:32;1.00;1.00;0.00
65973;PMS5003;52729;54.906;73.316;2022-09-21T10:39:46;4.00;4.00;0.00
65973;PMS5003;52729;54.906;73.316;2022-09-21T10:42:48;4.00;4.00;0.00
65973;PMS5003;52729;54.906;73.316;2022-09-21T10:45:53;7.00;7.00;0.75
65973;PMS5003;52729;54.906;73.316;2022-09-21T10:48:55;4.00;4.00;0.00
65973;PMS5003;52729;54.906;73.316;2022-09-21T10:51:56;4.00;4.00;0.00
65973;PMS5003;52729;54.906;73.316;2022-09-21T10:54:58;5.50;5.50;1.00
65973;PMS5003;52729;54.906;73.316;2022-09-21T10:58:00;6.00;5.75;1.00
65973;PMS5003;52729;54.906;73.316;2022-09-21T11:01:09;7.00;6.00;3.00
65973;PMS5003;52729;54.906;73.316;2022-09-21T11:04:13;7.00;6.00;3.00
65973;PMS5003;52729;54.906;73.316;2022-09-21T11:07:38;5.25;5.00;1.00
65973;PMS5003;52729;54.906;73.316;2022-09-21T11:10:47;5.25;4.00;2.25
65973;PMS5003;52729;54.906;73.316;2022-09-21T11:13:57;5.25;4.25;1.00
65973;PMS5003;52729;54.906;73.316;2022-09-21T11:17:08;6.00;6.00;1.00
65973;PMS5003;52729;54.906;73.316;2022-09-21T11:26:39;5.00;4.00;1.00
65973;PMS5003;52729;54.906;73.316;2022-09-21T11:29:47;5.00;5.00;0.00
65973;PMS5003;52729;54.906;73.316;2022-09-21T11:36:12;9.25;8.50;4.00
65973;PMS5003;52729;54.906;73.316;2022-09-21T11:45:49;6.00;6.00;2.00
65973;PMS5003;52729;54.906;73.316;2022-09-21T11:58:42;18.00;18.00;10.00
65973;PMS5003;52729;54.906;73.316;2022-09-21T12:20:50;12.25;11.25;6.00
65973;PMS5003;52729;54.906;73.316;2022-09-21T12:23:55;19.00;17.00;7.00
65973;PMS5003;52729;54.906;73.316;2022-09-21T12:28:04;17.00;16.00;6.00
65973;PMS5003;52729;54.906;73.316;2022-09-21T12:30:32;16.00;16.00;6.00
65973;PMS5003;52729;54.906;73.316;2022-09-21T12:33:35;14.00;14.00;6.00
65973;PMS5003;52729;54.906;73.316;2022-09-21T12:36:43;15.00;15.00;5.00
65973;PMS5003;52729;54.906;73.316;2022-09-21T12:39:51;13.00;13.00;6.00
65973;PMS5003;52729;54.906;73.316;2022-09-21T12:42:57;12.00;11.00;4.00
65973;PMS5003;52729;54.906;73.316;2022-09-21T12:47:03;13.50;10.00;6.00
65973;PMS5003;52729;54.906;73.316;2022-09-21T12:49:31;12.25;10.00;4.00
65973;PMS5003;52729;54.906;73.316;2022-09-21T12:52:32;8.00;8.00;2.75
65973;PMS5003;52729;54.906;73.316;2022-09-21T13:05:20;18.25;16.50;7.00
65973;PMS5003;52729;54.906;73.316;2022-09-21T13:08:24;20.25;17.75;7.50
65973;PMS5003;52729;54.906;73.316;2022-09-21T13:11:27;18.50;16.00;7.00
65973;PMS5003;52729;54.906;73.316;2022-09-21T13:14:29;26.00;24.00;11.00
65973;PMS5003;52729;54.906;73.316;2022-09-21T13:17:34;29.75;22.50;13.25
65973;PMS5003;52729;54.906;73.316;2022-09-21T13:20:37;29.25;23.50;14.00
65973;PMS5003;52729;54.906;73.316;2022-09-21T13:26:58;27.50;24.50;13.75
65973;PMS5003;52729;54.906;73.316;2022-09-21T13:30:27;32.00;27.00;16.00
65973;PMS5003;52729;54.906;73.316;2022-09-21T13:33:37;25.00;22.00;13.00
65973;PMS5003;52729;54.906;73.316;2022-09-21T13:36:39;26.50;26.50;15.50
65973;PMS5003;52729;54.906;73.316;2022-09-21T13:42:47;22.00;21.00;9.00
65973;PMS5003;52729;54.906;73.316;2022-09-21T13:45:54;22.50;21.50;12.00
65973;PMS5003;52729;54.906;73.316;2022-09-21T13:49:04;27.00;23.25;14.50
65973;PMS5003;52729;54.906;73.316;2022-09-21T13:55:28;27.00;21.00;12.00
65973;PMS5003;52729;54.906;73.316;2022-09-21T13:58:41;22.00;19.00;12.00
65973;PMS5003;52729;54.906;73.316;2022-09-21T14:01:44;25.00;21.00;11.00
65973;PMS5003;52729;54.906;73.316;2022-09-21T14:04:46;21.75;21.00;10.00
65973;PMS5003;52729;54.906;73.316;2022-09-21T14:07:52;23.75;22.25;11.25
65973;PMS5003;52729;54.906;73.316;2022-09-21T14:11:01;31.50;29.00;17.25
65973;PMS5003;52729;54.906;73.316;2022-09-21T14:17:35;38.00;32.50;20.00
65973;PMS5003;52729;54.906;73.316;2022-09-21T14:20:36;32.50;31.00;20.00
65973;PMS5003;52729;54.906;73.316;2022-09-21T14:30:30;26.25;21.50;12.00
65973;PMS5003;52729;54.906;73.316;2022-09-21T14:33:44;29.25;23.25;13.25
65973;PMS5003;52729;54.906;73.316;2022-09-21T14:36:48;30.00;28.00;15.50
65973;PMS5003;52729;54.906;73.316;2022-09-21T14:40:01;35.75;31.50;19.00
65973;PMS5003;52729;54.906;73.316;2022-09-21T14:43:08;34.00;30.00;19.00
65973;PMS5003;52729;54.906;73.316;2022-09-21T14:50:32;31.50;29.00;19.00
65973;PMS5003;52729;54.906;73.316;2022-09-21T14:53:27;25.25;24.00;17.25
65973;PMS5003;52729;54.906;73.316;2022-09-21T15:06:39;34.50;31.00;19.00
65973;PMS5003;52729;54.906;73.316;2022-09-21T15:10:20;33.75;30.00;18.00
65973;PMS5003;52729;54.906;73.316;2022-09-21T15:16:43;28.00;26.00;17.00
65973;PMS5003;52729;54.906;73.316;2022-09-21T15:19:46;33.00;27.50;18.00
65973;PMS5003;52729;54.906;73.316;2022-09-21T15:22:52;33.00;27.25;17.50
65973;PMS5003;52729;54.906;73.316;2022-09-21T15:25:55;33.00;29.00;18.00
65973;PMS5003;52729;54.906;73.316;2022-09-21T15:29:04;32.50;29.00;19.00
65973;PMS5003;52729;54.906;73.316;2022-09-21T15:32:07;27.75;25.25;16.00
65973;PMS5003;52729;54.906;73.316;2022-09-21T15:35:19;28.25;26.25;17.75
65973;PMS5003;52729;54.906;73.316;2022-09-21T15:38:27;28.50;27.50;18.25
65973;PMS5003;52729;54.906;73.316;2022-09-21T15:41:36;28.75;25.50;17.00
65973;PMS5003;52729;54.906;73.316;2022-09-21T15:44:53;25.00;24.75;16.00
65973;PMS5003;52729;54.906;73.316;2022-09-21T15:48:05;25.00;24.00;15.00
65973;PMS5003;52729;54.906;73.316;2022-09-21T15:51:23;23.50;21.25;12.50
65973;PMS5003;52729;54.906;73.316;2022-09-21T15:57:36;23.00;20.75;11.00
65973;PMS5003;52729;54.906;73.316;2022-09-21T16:00:41;20.75;20.50;9.50
65973;PMS5003;52729;54.906;73.316;2022-09-21T16:04:04;24.25;23.00;14.50
65973;PMS5003;52729;54.906;73.316;2022-09-21T16:13:37;22.75;18.75;10.00
65973;PMS5003;52729;54.906;73.316;2022-09-21T16:17:40;24.25;18.50;8.00
65973;PMS5003;52729;54.906;73.316;2022-09-21T16:20:21;23.00;19.50;10.00
65973;PMS5003;52729;54.906;73.316;2022-09-21T16:23:23;20.50;18.00;7.50
65973;PMS5003;52729;54.906;73.316;2022-09-21T16:26:31;18.50;18.00;6.75
65973;PMS5003;52729;54.906;73.316;2022-09-21T16:29:41;19.50;17.50;8.75
65973;PMS5003;52729;54.906;73.316;2022-09-21T16:32:43;20.00;17.00;8.00
65973;PMS5003;52729;54.906;73.316;2022-09-21T16:35:47;20.00;18.00;9.00
65973;PMS5003;52729;54.906;73.316;2022-09-21T16:38:49;21.50;18.00;8.00
65973;PMS5003;52729;54.906;73.316;2022-09-21T16:42:04;20.00;19.50;10.25
65973;PMS5003;52729;54.906;73.316;2022-09-21T16:45:06;21.50;19.25;9.00
65973;PMS5003;52729;54.906;73.316;2022-09-21T16:48:11;22.75;21.00;9.00
65973;PMS5003;52729;54.906;73.316;2022-09-21T16:51:13;23.50;20.75;8.75
65973;PMS5003;52729;54.906;73.316;2022-09-21T16:54:15;20.75;18.50;9.00
65973;PMS5003;52729;54.906;73.316;2022-09-21T16:57:16;23.00;21.50;10.75
65973;PMS5003;52729;54.906;73.316;2022-09-21T17:00:22;26.75;25.00;12.00
65973;PMS5003;52729;54.906;73.316;2022-09-21T17:03:24;34.00;30.75;18.50
65973;PMS5003;52729;54.906;73.316;2022-09-21T17:06:35;33.50;29.00;19.00
65973;PMS5003;52729;54.906;73.316;2022-09-21T17:09:36;27.50;24.00;14.50
65973;PMS5003;52729;54.906;73.316;2022-09-21T17:12:38;28.50;26.75;15.50
65973;PMS5003;52729;54.906;73.316;2022-09-21T17:15:44;29.00;27.00;15.50
65973;PMS5003;52729;54.906;73.316;2022-09-21T17:18:47;28.00;24.50;16.00
65973;PMS5003;52729;54.906;73.316;2022-09-21T17:21:58;27.00;26.50;16.00
65973;PMS5003;52729;54.906;73.316;2022-09-21T17:25:04;25.25;24.00;15.00
65973;PMS5003;52729;54.906;73.316;2022-09-21T17:28:13;26.00;24.00;15.00
65973;PMS5003;52729;54.906;73.316;2022-09-21T17:31:20;23.00;22.00;12.50
65973;PMS5003;52729;54.906;73.316;2022-09-21T17:34:24;24.00;23.00;14.00
65973;PMS5003;52729;54.906;73.316;2022-09-21T17:37:36;23.75;23.00;13.75
65973;PMS5003;52729;54.906;73.316;2022-09-21T17:40:47;27.50;25.00;12.75
65973;PMS5003;52729;54.906;73.316;2022-09-21T17:47:18;27.00;23.50;15.00
65973;PMS5003;52729;54.906;73.316;2022-09-21T17:50:21;27.25;24.50;15.00
65973;PMS5003;52729;54.906;73.316;2022-09-21T17:53:28;29.00;26.50;16.50
65973;PMS5003;52729;54.906;73.316;2022-09-21T17:59:47;26.00;24.00;15.50
65973;PMS5003;52729;54.906;73.316;2022-09-21T18:02:58;27.00;25.00;16.50
65973;PMS5003;52729;54.906;73.316;2022-09-21T18:06:03;27.00;26.00;18.00
65973;PMS5003;52729;54.906;73.316;2022-09-21T18:09:10;25.25;22.00;16.50
65973;PMS5003;52729;54.906;73.316;2022-09-21T18:15:32;26.25;21.50;12.50
65973;PMS5003;52729;54.906;73.316;2022-09-21T18:18:43;31.50;27.50;16.50
65973;PMS5003;52729;54.906;73.316;2022-09-21T18:21:46;36.00;29.25;19.00
65973;PMS5003;52729;54.906;73.316;2022-09-21T18:24:50;34.50;30.00;18.25
65973;PMS5003;52729;54.906;73.316;2022-09-21T18:27:54;38.50;32.75;19.25
65973;PMS5003;52729;54.906;73.316;2022-09-21T18:44:03;31.25;29.00;18.50
65973;PMS5003;52729;54.906;73.316;2022-09-21T18:47:21;31.50;30.00;19.00
65973;PMS5003;52729;54.906;73.316;2022-09-21T18:50:32;32.50;30.50;20.00
65973;PMS5003;52729;54.906;73.316;2022-09-21T18:53:46;34.25;30.00;18.50
65973;PMS5003;52729;54.906;73.316;2022-09-21T18:56:48;33.50;30.00;19.75
65973;PMS5003;52729;54.906;73.316;2022-09-21T18:59:49;34.75;30.50;20.00
65973;PMS5003;52729;54.906;73.316;2022-09-21T19:02:51;37.75;30.50;19.50
65973;PMS5003;52729;54.906;73.316;2022-09-21T19:21:57;34.00;27.50;18.00
65973;PMS5003;52729;54.906;73.316;2022-09-21T19:28:28;38.00;33.00;21.00
65973;PMS5003;52729;54.906;73.316;2022-09-21T19:31:43;41.50;34.00;21.50
65973;PMS5003;52729;54.906;73.316;2022-09-21T19:34:44;38.00;31.50;20.50
65973;PMS5003;52729;54.906;73.316;2022-09-21T19:37:46;39.00;30.75;20.00
65973;PMS5003;52729;54.906;73.316;2022-09-21T19:40:49;39.00;31.00;20.00
65973;PMS5003;52729;54.906;73.316;2022-09-21T19:50:37;43.00;34.00;21.50
65973;PMS5003;52729;54.906;73.316;2022-09-21T19:53:41;35.25;28.00;17.50
65973;PMS5003;52729;54.906;73.316;2022-09-21T19:57:04;38.75;32.50;19.50
65973;PMS5003;52729;54.906;73.316;2022-09-21T20:00:39;38.50;31.00;19.00
65973;PMS5003;52729;54.906;73.316;2022-09-21T20:03:43;36.75;32.00;20.75
65973;PMS5003;52729;54.906;73.316;2022-09-21T20:06:46;33.50;30.00;18.50
65973;PMS5003;52729;54.906;73.316;2022-09-21T20:16:24;40.00;33.00;20.50
65973;PMS5003;52729;54.906;73.316;2022-09-21T20:22:36;37.25;31.25;20.50
65973;PMS5003;52729;54.906;73.316;2022-09-21T20:25:43;41.25;33.50;21.50
65973;PMS5003;52729;54.906;73.316;2022-09-21T20:28:53;41.00;32.25;21.00
65973;PMS5003;52729;54.906;73.316;2022-09-21T20:31:59;34.50;28.50;18.25
65973;PMS5003;52729;54.906;73.316;2022-09-21T20:35:13;39.50;33.00;20.50
65973;PMS5003;52729;54.906;73.316;2022-09-21T20:38:15;39.50;30.50;20.00
65973;PMS5003;52729;54.906;73.316;2022-09-21T20:41:17;41.25;34.00;21.00
65973;PMS5003;52729;54.906;73.316;2022-09-21T20:44:23;38.50;32.00;20.00
65973;PMS5003;52729;54.906;73.316;2022-09-21T20:47:24;39.25;32.25;20.75
65973;PMS5003;52729;54.906;73.316;2022-09-21T20:50:33;40.50;34.00;20.00
65973;PMS5003;52729;54.906;73.316;2022-09-21T20:53:34;37.50;32.50;20.00
65973;PMS5003;52729;54.906;73.316;2022-09-21T20:56:35;39.00;33.00;20.67
65973;PMS5003;52729;54.906;73.316;2022-09-21T20:59:41;40.75;33.00;20.00
65973;PMS5003;52729;54.906;73.316;2022-09-21T21:02:43;39.00;32.25;20.00
65973;PMS5003;52729;54.906;73.316;2022-09-21T21:05:49;40.00;34.00;20.00
65973;PMS5003;52729;54.906;73.316;2022-09-21T21:08:50;40.67;34.33;20.00
65973;PMS5003;52729;54.906;73.316;2022-09-21T21:11:51;35.50;30.50;18.00
65973;PMS5003;52729;54.906;73.316;2022-09-21T21:14:52;35.75;31.00;20.00
65973;PMS5003;52729;54.906;73.316;2022-09-21T21:17:58;36.50;31.50;20.00
65973;PMS5003;52729;54.906;73.316;2022-09-21T21:21:02;36.25;31.50;20.00
65973;PMS5003;52729;54.906;73.316;2022-09-21T21:24:04;35.25;30.00;18.75
65973;PMS5003;52729;54.906;73.316;2022-09-21T21:27:24;36.50;30.50;18.00
65973;PMS5003;52729;54.906;73.316;2022-09-21T21:30:35;36.00;30.50;18.25
65973;PMS5003;52729;54.906;73.316;2022-09-21T21:33:42;33.50;29.75;18.00
65973;PMS5003;52729;54.906;73.316;2022-09-21T21:36:43;27.00;25.25;15.50